createdAt,value
2018-09-06T00:02:19.404Z,99832.30
2018-09-06T00:04:45.343Z,99833.17
2018-09-06T00:07:11.305Z,99830.02
2018-09-06T00:09:37.272Z,99826.87
2018-09-06T00:12:03.218Z,99828.32
2018-09-06T00:14:29.228Z,99832.55
2018-09-06T00:16:55.238Z,99832.03
2018-09-06T00:19:21.193Z,99833.22
2018-09-06T00:21:47.157Z,99832.30
2018-09-06T00:24:13.093Z,99832.70
2018-09-06T00:26:39.057Z,99830.89
2018-09-06T00:29:04.996Z,99832.66
2018-09-06T00:31:30.949Z,99827.67
2018-09-06T00:33:56.902Z,99826.96
2018-09-06T00:36:22.880Z,99833.95
2018-09-06T00:38:48.839Z,99829.23
2018-09-06T00:41:14.765Z,99830.72
2018-09-06T00:43:40.724Z,99832.02
2018-09-06T00:46:06.666Z,99831.93
2018-09-06T00:48:32.644Z,99827.50
2018-09-06T00:50:58.608Z,99827.70
2018-09-06T00:53:24.549Z,99824.64
2018-09-06T00:55:50.511Z,99812.60
2018-09-06T00:58:16.462Z,99816.17
2018-09-06T01:00:42.463Z,99817.33
2018-09-06T01:03:08.404Z,99814.95
2018-09-06T01:05:34.384Z,99815.36
2018-09-06T01:08:00.321Z,99819.72
2018-09-06T01:10:26.297Z,99816.78
2018-09-06T01:12:52.257Z,99820.48
2018-09-06T01:15:18.221Z,99820.55
2018-09-06T01:17:44.388Z,99819.86
2018-09-06T01:20:10.366Z,99817.02
2018-09-06T01:22:36.330Z,99816.00
2018-09-06T01:25:02.261Z,99810.83
2018-09-06T01:27:28.253Z,99805.66
2018-09-06T01:29:54.189Z,99807.27
2018-09-06T01:32:20.160Z,99811.13
2018-09-06T01:34:46.112Z,99807.16
2018-09-06T01:37:12.110Z,99812.77
2018-09-06T01:39:38.076Z,99810.83
2018-09-06T01:42:04.035Z,99801.59
2018-09-06T01:44:29.983Z,99802.24
2018-09-06T01:46:55.959Z,99803.28
2018-09-06T01:49:21.914Z,99806.23
2018-09-06T01:51:47.874Z,99802.10
2018-09-06T01:54:13.851Z,99804.30
2018-09-06T01:56:39.798Z,99804.30
2018-09-06T01:59:05.771Z,99792.53
2018-09-06T02:01:31.721Z,99795.30
2018-09-06T02:03:57.701Z,99795.20
2018-09-06T02:06:23.624Z,99791.13
2018-09-06T02:08:49.594Z,99792.98
2018-09-06T02:11:15.528Z,99790.19
2018-09-06T02:13:41.475Z,99794.48
2018-09-06T02:16:07.408Z,99792.59
2018-09-06T02:18:33.370Z,99781.03
2018-09-06T02:20:59.301Z,99779.68
2018-09-06T02:23:25.266Z,99774.94
2018-09-06T02:25:51.218Z,99769.36
2018-09-06T02:28:17.175Z,99772.56
2018-09-06T02:30:43.123Z,99766.02
2018-09-06T02:33:09.085Z,99775.48
2018-09-06T02:35:35.037Z,99768.05
2018-09-06T02:38:00.980Z,99775.83
2018-09-06T02:40:26.951Z,99776.97
2018-09-06T02:42:52.875Z,99767.42
2018-09-06T02:45:18.852Z,99764.98
2018-09-06T02:47:44.825Z,99770.68
2018-09-06T02:50:10.749Z,99769.20
2018-09-06T02:52:36.676Z,99767.43
2018-09-06T02:55:02.610Z,99765.11
2018-09-06T02:57:28.583Z,99761.69
2018-09-06T02:59:54.534Z,99757.66
2018-09-06T03:02:20.507Z,99750.94
2018-09-06T03:04:46.557Z,99758.61
2018-09-06T03:07:12.494Z,99740.82
2018-09-06T03:09:38.422Z,99756.38
2018-09-06T03:12:04.379Z,99755.16
2018-09-06T03:14:30.345Z,99752.92
2018-09-06T03:16:56.332Z,99752.64
2018-09-06T03:19:22.320Z,99755.95
2018-09-06T03:21:48.327Z,99746.91
2018-09-06T03:24:14.271Z,99753.66
2018-09-06T03:26:40.243Z,99744.15
2018-09-06T03:29:06.196Z,99747.88
2018-09-06T03:31:32.136Z,99746.45
2018-09-06T03:33:58.077Z,99750.02
2018-09-06T03:36:24.025Z,99747.72
2018-09-06T03:38:50.024Z,99746.72
2018-09-06T03:41:15.957Z,99741.69
2018-09-06T03:43:41.944Z,99739.62
2018-09-06T03:46:07.919Z,99738.34
2018-09-06T03:48:33.909Z,99738.92
2018-09-06T03:50:59.873Z,99737.70
2018-09-06T03:53:25.890Z,99736.52
2018-09-06T03:55:51.822Z,99739.47
2018-09-06T03:58:17.766Z,99738.27
2018-09-06T04:00:43.721Z,99742.49
2018-09-06T04:03:09.681Z,99733.30
2018-09-06T04:05:35.635Z,99732.77
2018-09-06T04:08:01.585Z,99732.27
2018-09-06T04:10:27.562Z,99730.57
2018-09-06T04:12:53.521Z,99737.58
2018-09-06T04:15:19.532Z,99733.70
2018-09-06T04:17:45.477Z,99735.29
2018-09-06T04:20:11.475Z,99736.80
2018-09-06T04:22:37.437Z,99736.05
2018-09-06T04:25:03.432Z,99736.95
2018-09-06T04:27:29.391Z,99730.45
2018-09-06T04:29:55.498Z,99728.95
2018-09-06T04:32:21.509Z,99736.23
2018-09-06T04:34:47.473Z,99740.92
2018-09-06T04:37:13.433Z,99732.03
2018-09-06T04:39:39.373Z,99733.97
2018-09-06T04:42:05.370Z,99730.25
2018-09-06T04:44:31.371Z,99730.55
2018-09-06T04:46:57.344Z,99728.98
2018-09-06T04:49:23.318Z,99732.33
2018-09-06T04:51:49.299Z,99730.11
2018-09-06T04:54:15.253Z,99729.54
2018-09-06T04:56:41.387Z,99724.72
2018-09-06T04:59:07.353Z,99727.41
2018-09-06T05:01:33.332Z,99726.59
2018-09-06T05:03:59.272Z,99730.33
2018-09-06T05:06:25.241Z,99733.66
2018-09-06T05:08:51.193Z,99732.67
2018-09-06T05:11:17.147Z,99734.75
2018-09-06T05:13:43.122Z,99737.08
2018-09-06T05:16:09.046Z,99729.75
2018-09-06T05:18:34.972Z,99732.20
2018-09-06T05:21:00.925Z,99731.22
2018-09-06T05:23:26.893Z,99730.67
2018-09-06T05:25:52.868Z,99731.52
2018-09-06T05:28:18.814Z,99726.95
2018-09-06T05:30:44.817Z,99727.19
2018-09-06T05:33:10.786Z,99724.85
2018-09-06T05:35:36.747Z,99725.12
2018-09-06T05:38:02.693Z,99716.41
2018-09-06T05:40:28.696Z,99720.32
2018-09-06T05:42:54.720Z,99719.55
2018-09-06T05:45:20.758Z,99720.04
2018-09-06T05:47:46.725Z,99720.20
2018-09-06T05:50:12.736Z,99721.27
2018-09-06T05:52:38.712Z,99719.40
2018-09-06T05:55:04.682Z,99726.62
2018-09-06T05:57:30.683Z,99721.98
2018-09-06T05:59:56.673Z,99719.48
2018-09-06T06:02:22.628Z,99720.61
2018-09-06T06:04:48.583Z,99727.31
2018-09-06T06:07:14.547Z,99726.52
2018-09-06T06:09:40.528Z,99731.12
2018-09-06T06:12:06.471Z,99728.44
2018-09-06T06:14:32.428Z,99726.02
2018-09-06T06:16:58.366Z,99720.33
2018-09-06T06:19:24.340Z,99724.56
2018-09-06T06:21:50.305Z,99722.64
2018-09-06T06:24:16.279Z,99715.08
2018-09-06T06:26:42.252Z,99721.34
2018-09-06T06:29:08.203Z,99723.83
2018-09-06T06:31:34.152Z,99716.55
2018-09-06T06:34:00.131Z,99717.39
2018-09-06T06:36:26.095Z,99710.59
2018-09-06T06:38:52.150Z,99713.08
2018-09-06T06:41:18.130Z,99706.63
2018-09-06T06:43:44.188Z,99707.63
2018-09-06T06:46:10.163Z,99712.55
2018-09-06T06:48:36.151Z,99709.56
2018-09-06T06:51:02.127Z,99708.48
2018-09-06T06:53:28.187Z,99616.89
2018-09-06T06:55:54.148Z,99706.52
2018-09-06T06:58:20.119Z,99701.61
2018-09-06T07:00:46.099Z,99703.72
2018-09-06T07:03:12.189Z,99703.77
2018-09-06T07:05:38.150Z,99697.73
2018-09-06T07:08:04.412Z,99697.00
2018-09-06T07:10:30.342Z,99695.25
2018-09-06T07:12:56.292Z,99697.39
2018-09-06T07:15:22.266Z,99702.22
2018-09-06T07:17:48.190Z,99697.39
2018-09-06T07:20:14.167Z,99698.94
2018-09-06T07:22:40.123Z,99705.30
2018-09-06T07:27:39.496Z,99698.58
2018-09-06T07:30:05.474Z,99697.89
2018-09-06T07:32:31.445Z,99695.20
2018-09-06T07:34:57.445Z,99693.95
2018-09-06T07:37:23.392Z,99689.92
2018-09-06T07:39:49.440Z,99696.13
2018-09-06T07:42:15.395Z,99697.23
2018-09-06T07:44:41.341Z,99694.38
2018-09-06T07:47:07.317Z,99695.91
2018-09-06T07:49:33.333Z,99689.16
2018-09-06T07:51:59.329Z,99692.03
2018-09-06T07:54:25.310Z,99691.84
2018-09-06T07:56:51.254Z,99683.57
2018-09-06T07:59:17.194Z,99689.58
2018-09-06T08:01:43.192Z,99692.08
2018-09-06T08:04:09.088Z,99684.17
2018-09-06T08:06:35.031Z,99675.94
2018-09-06T08:09:00.992Z,99682.78
2018-09-06T08:11:26.972Z,99678.91
2018-09-06T08:13:52.924Z,99678.91
2018-09-06T08:16:18.862Z,99675.58
2018-09-06T08:18:44.829Z,99679.63
2018-09-06T08:21:10.787Z,99676.97
2018-09-06T08:23:36.805Z,99672.08
2018-09-06T08:26:02.752Z,99675.30
2018-09-06T08:28:28.723Z,99680.73
2018-09-06T08:30:54.885Z,99686.92
2018-09-06T08:33:20.720Z,99681.36
2018-09-06T08:35:46.656Z,99678.26
2018-09-06T08:38:12.644Z,99676.23
2018-09-06T08:40:38.608Z,99675.84
2018-09-06T08:43:04.564Z,99675.48
2018-09-06T08:45:30.547Z,99669.67
2018-09-06T08:47:56.500Z,99667.30
2018-09-06T08:50:22.446Z,99668.69
2018-09-06T08:52:48.398Z,99664.89
2018-09-06T08:55:14.363Z,99664.12
2018-09-06T08:57:40.306Z,99663.73
2018-09-06T09:00:06.292Z,99666.64
2018-09-06T09:02:32.291Z,99662.20
2018-09-06T09:04:58.280Z,99649.09
2018-09-06T09:07:24.258Z,99655.17
2018-09-06T09:09:50.213Z,99651.49
2018-09-06T09:12:16.173Z,99647.14
2018-09-06T09:14:42.146Z,99647.14
2018-09-06T09:17:08.112Z,99641.53
2018-09-06T09:19:34.111Z,99640.11
2018-09-06T09:22:00.124Z,99636.72
2018-09-06T09:24:26.054Z,99633.72
2018-09-06T09:26:52.004Z,99626.30
2018-09-06T09:29:17.996Z,99631.55
2018-09-06T09:31:43.948Z,99622.16
2018-09-06T09:34:09.902Z,99625.76
2018-09-06T09:36:35.862Z,99627.33
2018-09-06T09:39:01.847Z,99618.61
2018-09-06T09:41:27.847Z,99614.64
2018-09-06T09:43:53.874Z,99617.98
2018-09-06T09:48:45.122Z,99607.62
2018-09-06T09:51:11.082Z,99608.30
2018-09-06T09:53:37.053Z,99605.73
2018-09-06T09:56:03.009Z,99600.00
2018-09-06T09:58:32.459Z,99601.31
2018-09-06T10:00:58.595Z,99590.66
2018-09-06T10:03:24.617Z,99585.81
2018-09-06T10:05:50.582Z,99585.70
2018-09-06T10:08:16.579Z,99589.85
2018-09-06T10:10:42.517Z,99589.30
2018-09-06T10:13:08.533Z,99582.39
2018-09-06T10:15:34.505Z,99583.41
2018-09-06T10:18:00.515Z,99576.75
2018-09-06T10:20:26.478Z,99578.52
2018-09-06T10:22:52.460Z,99564.86
2018-09-06T10:25:18.418Z,99569.39
2018-09-06T10:27:44.400Z,99561.66
2018-09-06T10:30:10.364Z,99554.80
2018-09-06T10:32:36.309Z,99554.91
2018-09-06T10:35:02.267Z,99555.34
2018-09-06T10:37:28.264Z,99550.55
2018-09-06T10:39:54.307Z,99545.84
2018-09-06T10:42:20.235Z,99540.58
2018-09-06T10:44:46.193Z,99542.43
2018-09-06T10:47:12.128Z,99539.59
2018-09-06T10:49:38.114Z,99530.30
2018-09-06T10:52:04.081Z,99542.30
2018-09-06T10:54:30.038Z,99535.18
2018-09-06T10:56:56.008Z,99530.08
2018-09-06T10:59:21.951Z,99530.70
2018-09-06T11:01:47.897Z,99525.44
2018-09-06T11:04:13.872Z,99525.72
2018-09-06T11:06:39.838Z,99516.39
2018-09-06T11:09:05.808Z,99515.60
2018-09-06T11:11:31.745Z,99514.19
2018-09-06T11:13:57.793Z,99508.44
2018-09-06T11:16:23.800Z,99514.70
2018-09-06T11:18:49.814Z,99512.34
2018-09-06T11:21:15.896Z,99506.55
2018-09-06T11:23:41.780Z,99507.86
2018-09-06T11:26:07.783Z,99499.59
2018-09-06T11:28:33.773Z,99507.66
2018-09-06T11:30:59.768Z,99507.24
2018-09-06T11:33:25.802Z,99507.11
2018-09-06T11:35:51.711Z,99502.67
2018-09-06T11:38:17.665Z,99496.45
2018-09-06T11:40:43.597Z,99497.81
2018-09-06T11:43:09.577Z,99489.74
2018-09-06T11:45:35.575Z,99498.45
2018-09-06T11:48:01.552Z,99484.63
2018-09-06T11:50:27.569Z,99490.48
2018-09-06T11:52:53.542Z,99481.17
2018-09-06T11:55:19.522Z,99472.86
2018-09-06T11:57:45.457Z,99466.05
2018-09-06T12:00:11.423Z,99473.09
2018-09-06T12:02:37.438Z,99472.64
2018-09-06T12:05:03.394Z,99464.23
2018-09-06T12:07:29.344Z,99466.38
2018-09-06T12:09:55.311Z,99456.97
2018-09-06T12:12:21.271Z,99463.02
2018-09-06T12:14:47.223Z,99460.00
2018-09-06T12:17:13.210Z,99456.16
2018-09-06T12:19:39.200Z,99459.28
2018-09-06T12:22:05.172Z,99457.91
2018-09-06T12:24:31.110Z,99451.70
2018-09-06T12:26:57.085Z,99439.71
2018-09-06T12:29:23.111Z,99445.89
2018-09-06T12:31:49.091Z,99447.23
2018-09-06T12:34:15.063Z,99441.03
2018-09-06T12:36:41.024Z,99438.07
2018-09-06T12:39:06.968Z,99433.30
2018-09-06T12:41:32.943Z,99434.67
2018-09-06T12:43:58.917Z,99436.11
2018-09-06T12:46:24.901Z,99430.27
2018-09-06T12:48:50.925Z,99426.81
2018-09-06T12:51:16.923Z,99413.56
2018-09-06T12:53:42.896Z,99411.20
2018-09-06T12:56:08.887Z,99416.63
2018-09-06T12:58:34.892Z,99415.28
2018-09-06T13:01:00.873Z,99413.20
2018-09-06T13:03:26.839Z,99414.63
2018-09-06T13:05:52.816Z,99409.17
2018-09-06T13:08:18.788Z,99407.48
2018-09-06T13:10:44.766Z,99407.88
2018-09-06T13:13:10.737Z,99400.19
2018-09-06T13:15:36.753Z,99400.52
2018-09-06T13:18:02.741Z,99398.72
2018-09-06T13:20:28.700Z,99390.39
2018-09-06T13:22:54.658Z,99384.81
2018-09-06T13:25:20.643Z,99391.84
2018-09-06T13:27:46.588Z,99387.47
2018-09-06T13:30:12.581Z,99383.59
2018-09-06T13:32:38.522Z,99382.78
2018-09-06T13:35:04.490Z,99381.94
2018-09-06T13:37:30.448Z,99375.92
2018-09-06T13:42:28.886Z,99364.29
2018-09-06T13:44:54.866Z,99364.09
2018-09-06T13:47:20.812Z,99363.70
2018-09-06T13:49:46.779Z,99362.05
2018-09-06T13:52:12.825Z,99364.23
2018-09-06T13:54:38.740Z,99360.56
2018-09-06T13:57:04.740Z,99366.05
2018-09-06T13:59:30.818Z,99358.05
2018-09-06T14:01:56.780Z,99357.64
2018-09-06T14:04:22.760Z,99357.95
2018-09-06T14:06:48.738Z,99349.77
2018-09-06T14:09:14.687Z,99347.95
2018-09-06T14:11:40.644Z,99344.07
2018-09-06T14:14:06.628Z,99340.54
2018-09-06T14:16:32.656Z,99341.23
2018-09-06T14:18:58.617Z,99333.80
2018-09-06T14:21:24.579Z,99330.78
2018-09-06T14:26:22.871Z,99324.03
2018-09-06T14:28:48.873Z,99330.39
2018-09-06T14:31:14.839Z,99320.25
2018-09-06T14:33:40.814Z,99315.50
2018-09-06T14:36:06.798Z,99320.36
2018-09-06T14:38:32.825Z,99317.53
2018-09-06T14:40:58.757Z,99315.86
2018-09-06T14:43:24.716Z,99312.39
2018-09-06T14:45:50.677Z,99303.52
2018-09-06T14:48:16.665Z,99295.70
2018-09-06T14:50:42.688Z,99303.62
2018-09-06T14:53:08.647Z,99298.02
2018-09-06T14:55:34.678Z,99295.78
2018-09-06T14:58:00.663Z,99289.41
2018-09-06T15:00:26.623Z,99290.96
2018-09-06T15:02:52.566Z,99288.86
2018-09-06T15:05:18.623Z,99288.38
2018-09-06T15:07:44.629Z,99283.08
2018-09-06T15:10:10.629Z,99283.28
2018-09-06T15:12:36.630Z,99278.39
2018-09-06T15:15:02.609Z,99275.47
2018-09-06T15:17:28.603Z,99272.05
2018-09-06T15:19:54.696Z,99273.91
2018-09-06T15:22:20.695Z,99267.50
2018-09-06T15:24:46.640Z,99267.20
2018-09-06T15:27:12.802Z,99265.94
2018-09-06T15:29:38.820Z,99263.45
2018-09-06T15:32:04.778Z,99259.65
2018-09-06T15:34:30.793Z,99262.83
2018-09-06T15:36:56.910Z,99264.51
2018-09-06T15:39:22.889Z,99248.78
2018-09-06T15:41:48.859Z,99250.73
2018-09-06T15:44:14.817Z,99248.10
2018-09-06T15:46:40.805Z,99248.97
2018-09-06T15:49:06.789Z,99251.91
2018-09-06T15:51:32.808Z,99248.02
2018-09-06T15:53:58.770Z,99248.02
2018-09-06T15:56:24.793Z,99245.74
2018-09-06T15:58:50.778Z,99250.81
2018-09-06T16:01:16.741Z,99250.08
2018-09-06T16:03:42.794Z,99251.55
2018-09-06T16:06:08.764Z,99246.00
2018-09-06T16:08:34.739Z,99246.59
2018-09-06T16:11:00.730Z,99244.22
2018-09-06T16:13:26.702Z,99249.95
2018-09-06T16:15:52.703Z,99246.48
2018-09-06T16:18:18.741Z,99247.67
2018-09-06T16:20:44.743Z,99249.52
2018-09-06T16:23:10.719Z,99244.91
2018-09-06T16:25:36.670Z,99247.95
2018-09-06T16:28:02.644Z,99246.20
2018-09-06T16:30:28.626Z,99246.20
2018-09-06T16:32:55.117Z,99253.29
2018-09-06T16:35:21.203Z,99252.58
2018-09-06T16:37:47.199Z,99256.00
2018-09-06T16:40:13.140Z,99258.47
2018-09-06T16:42:39.203Z,99255.66
2018-09-06T16:45:05.088Z,99254.31
2018-09-06T16:47:31.054Z,99255.25
2018-09-06T16:49:57.105Z,99253.13
2018-09-06T16:52:23.119Z,99251.83
2018-09-06T16:54:49.078Z,99249.88
2018-09-06T16:57:15.910Z,99253.41
2018-09-06T16:59:41.876Z,99250.61
2018-09-06T17:02:07.892Z,99251.81
2018-09-06T17:04:33.849Z,99250.82
2018-09-06T17:07:01.018Z,99246.85
2018-09-06T17:09:26.965Z,99242.33
2018-09-06T17:11:52.990Z,99244.13
2018-09-06T17:14:18.933Z,99241.02
2018-09-06T17:16:44.896Z,99240.59
2018-09-06T17:19:10.890Z,99246.22
2018-09-06T17:21:37.884Z,99239.86
2018-09-06T17:24:03.845Z,99243.50
2018-09-06T17:26:29.790Z,99243.38
2018-09-06T17:28:55.895Z,99236.45
2018-09-06T17:31:21.874Z,99238.34
2018-09-06T17:33:47.879Z,99244.13
2018-09-06T17:36:13.910Z,99236.66
2018-09-06T17:38:39.954Z,99234.74
2018-09-06T17:41:05.923Z,99231.11
2018-09-06T17:43:31.969Z,99234.86
2018-09-06T17:45:57.948Z,99235.06
2018-09-06T17:48:23.942Z,99235.97
2018-09-06T17:50:49.907Z,99235.31
2018-09-06T17:53:15.894Z,99241.67
2018-09-06T17:55:41.930Z,99237.80
2018-09-06T17:58:07.925Z,99238.88
2018-09-06T18:00:33.901Z,99242.66
2018-09-06T18:03:00.157Z,99243.23
2018-09-06T18:05:26.114Z,99244.48
2018-09-06T18:07:52.165Z,99241.83
2018-09-06T18:10:18.141Z,99242.91
2018-09-06T18:12:44.145Z,99243.95
2018-09-06T18:15:10.110Z,99244.03
2018-09-06T18:17:36.129Z,99247.16
2018-09-06T18:20:02.095Z,99244.41
2018-09-06T18:22:28.110Z,99244.52
2018-09-06T18:24:54.113Z,99239.77
2018-09-06T18:27:20.149Z,99243.50
2018-09-06T18:29:46.118Z,99240.53
2018-09-06T18:32:12.065Z,99244.20
2018-09-06T18:34:38.068Z,99247.32
2018-09-06T18:37:04.169Z,99247.00
2018-09-06T18:39:30.315Z,99246.80
2018-09-06T18:41:56.342Z,99249.55
2018-09-06T18:44:22.380Z,99250.00
2018-09-06T18:46:48.442Z,99252.28
2018-09-06T18:49:14.864Z,99258.60
2018-09-06T18:51:41.194Z,99256.92
2018-09-06T18:54:07.191Z,99262.20
2018-09-06T18:56:33.278Z,99265.83
2018-09-06T18:58:59.424Z,99267.44
2018-09-06T19:01:25.436Z,99275.13
2018-09-06T19:03:51.508Z,99279.53
2018-09-06T19:06:17.462Z,99280.30
2018-09-06T19:08:43.465Z,99278.73
2018-09-06T19:11:09.447Z,99281.38
2018-09-06T19:13:35.615Z,99282.20
2018-09-06T19:16:01.569Z,99282.22
2018-09-06T19:18:27.549Z,99281.71
2018-09-06T19:20:53.516Z,99280.58
2018-09-06T19:23:19.485Z,99276.20
2018-09-06T19:25:45.435Z,99275.49
2018-09-06T19:28:11.401Z,99281.75
2018-09-06T19:30:37.549Z,99276.18
2018-09-06T19:33:03.606Z,99276.53
2018-09-06T19:35:29.624Z,99280.66
2018-09-06T19:37:55.632Z,99274.67
2018-09-06T19:40:21.677Z,99279.58
2018-09-06T19:42:47.641Z,99279.70
2018-09-06T19:45:13.641Z,99276.21
2018-09-06T19:47:39.722Z,99271.03
2018-09-06T19:50:05.929Z,99272.91
2018-09-06T19:52:31.899Z,99272.91
2018-09-06T19:54:57.904Z,99269.29
2018-09-06T19:57:23.890Z,99267.84
2018-09-06T19:59:49.871Z,99266.58
2018-09-06T20:02:15.838Z,99262.63
2018-09-06T20:04:41.960Z,99261.34
2018-09-06T20:07:07.988Z,99272.45
2018-09-06T20:09:33.964Z,99270.53
2018-09-06T20:12:01.436Z,99266.70
2018-09-06T20:14:27.550Z,99268.75
2018-09-06T20:16:53.585Z,99263.55
2018-09-06T20:19:19.615Z,99270.98
2018-09-06T20:21:45.621Z,99266.91
2018-09-06T20:24:12.028Z,99273.43
2018-09-06T20:26:38.048Z,99272.09
2018-09-06T20:29:04.007Z,99276.18
2018-09-06T20:31:30.046Z,99273.36
2018-09-06T20:33:56.557Z,99279.71
2018-09-06T20:36:22.529Z,99274.00
2018-09-06T20:38:48.518Z,99272.23
2018-09-06T20:41:14.542Z,99273.07
2018-09-06T20:43:40.478Z,99274.95
2018-09-06T20:46:06.468Z,99276.23
2018-09-06T20:48:32.506Z,99280.30
2018-09-06T20:50:58.517Z,99277.14
2018-09-06T20:53:24.504Z,99272.21
2018-09-06T20:55:50.454Z,99275.59
2018-09-06T20:58:16.473Z,99269.92
2018-09-06T21:00:42.461Z,99263.37
2018-09-06T21:03:08.524Z,99261.27
2018-09-06T21:05:34.517Z,99260.27
2018-09-06T21:08:00.482Z,99262.13
2018-09-06T21:10:26.455Z,99263.78
2018-09-06T21:12:52.460Z,99260.08
2018-09-06T21:15:18.415Z,99260.53
2018-09-06T21:17:44.370Z,99261.74
2018-09-06T21:20:10.345Z,99257.95
2018-09-06T21:22:36.348Z,99258.51
2018-09-06T21:25:02.344Z,99255.47
2018-09-06T21:27:28.323Z,99244.88
2018-09-06T21:29:54.327Z,99247.00
2018-09-06T21:32:20.275Z,99243.88
2018-09-06T21:34:46.241Z,99244.62
2018-09-06T21:37:12.189Z,99248.11
2018-09-06T21:39:38.160Z,99239.45
2018-09-06T21:42:04.124Z,99247.39
2018-09-06T21:44:30.084Z,99248.85
2018-09-06T21:46:56.033Z,99252.59
2018-09-06T21:49:22.019Z,99252.16
2018-09-06T21:51:47.995Z,99255.48
2018-09-06T21:54:13.944Z,99251.41
2018-09-06T21:56:39.885Z,99251.59
2018-09-06T21:59:05.839Z,99249.22
2018-09-06T22:01:31.832Z,99248.09
2018-09-06T22:03:57.777Z,99250.30
2018-09-06T22:06:23.740Z,99247.00
2018-09-06T22:08:49.706Z,99248.76
2018-09-06T22:11:15.690Z,99248.84
2018-09-06T22:13:41.647Z,99250.39
2018-09-06T22:16:07.583Z,99245.17
2018-09-06T22:18:33.539Z,99243.40
2018-09-06T22:20:59.485Z,99246.43
2018-09-06T22:23:25.430Z,99247.63
2018-09-06T22:25:51.408Z,99241.29
2018-09-06T22:28:17.357Z,99244.03
2018-09-06T22:30:43.319Z,99242.75
2018-09-06T22:33:09.291Z,99239.70
2018-09-06T22:35:35.237Z,99246.26
2018-09-06T22:38:01.175Z,99236.97
2018-09-06T22:40:27.122Z,99238.38
2018-09-06T22:42:53.079Z,99235.78
2018-09-06T22:45:19.043Z,99236.66
2018-09-06T22:47:45.017Z,99229.78
2018-09-06T22:50:10.968Z,99231.07
2018-09-06T22:52:36.965Z,99223.61
2018-09-06T22:55:02.916Z,99220.47
2018-09-06T22:57:28.872Z,99226.91
2018-09-06T22:59:54.830Z,99224.33
2018-09-06T23:02:20.801Z,99220.83
2018-09-06T23:04:46.787Z,99216.52
2018-09-06T23:07:12.751Z,99216.05
2018-09-06T23:09:38.745Z,99217.50
2018-09-06T23:12:04.698Z,99214.84
2018-09-06T23:14:30.650Z,99219.55
2018-09-06T23:16:56.598Z,99214.96
2018-09-06T23:19:22.567Z,99215.31
2018-09-06T23:21:48.516Z,99211.80
2018-09-06T23:24:14.476Z,99212.92
2018-09-06T23:26:40.457Z,99211.64
2018-09-06T23:29:06.422Z,99213.47
2018-09-06T23:31:32.368Z,99217.15
2018-09-06T23:33:58.385Z,99215.67
2018-09-06T23:36:24.343Z,99213.48
2018-09-06T23:38:50.288Z,99217.35
2018-09-06T23:41:16.256Z,99213.30
2018-09-06T23:43:42.216Z,99201.13
2018-09-06T23:46:08.147Z,99210.52
2018-09-06T23:48:34.105Z,99203.98
2018-09-06T23:51:00.071Z,99198.02
2018-09-06T23:53:26.038Z,99201.88
2018-09-06T23:55:51.997Z,99200.59
2018-09-06T23:58:17.944Z,99197.62
